createdAt,value
2022-08-07T03:35:53.038Z,83.70
2022-08-07T03:36:52.827Z,83.94
2022-08-07T03:37:53.232Z,83.64
2022-08-07T03:45:51.918Z,84.25
2022-08-07T03:47:13.733Z,84.55
2022-08-07T03:47:52.919Z,84.21
2022-08-07T03:52:01.159Z,82.84
2022-08-07T03:52:52.871Z,83.50
2022-08-07T03:54:33.133Z,83.50
2022-08-07T03:54:54.930Z,83.30
2022-08-07T03:56:03.774Z,83.44
2022-08-07T03:56:59.764Z,83.44
2022-08-07T03:58:34.251Z,83.70
2022-08-07T03:59:07.049Z,83.80
2022-08-07T04:00:02.906Z,84.11
2022-08-07T04:00:56.991Z,83.50
2022-08-07T04:01:51.830Z,83.80
2022-08-07T04:02:51.748Z,83.70
2022-08-07T04:03:55.083Z,83.56
2022-08-07T04:04:51.727Z,82.10
2022-08-07T04:05:51.715Z,82.30
2022-08-07T04:06:52.727Z,82.16
2022-08-07T04:07:51.699Z,82.50
2022-08-07T04:08:51.684Z,82.40
2022-08-07T04:09:51.678Z,82.80
2022-08-07T04:10:54.543Z,82.80
2022-08-07T04:12:26.430Z,83.00
2022-08-07T04:12:52.666Z,83.70
2022-08-07T04:14:10.548Z,84.05
2022-08-07T04:14:52.645Z,84.35
2022-08-07T04:15:51.614Z,84.45
2022-08-07T04:16:58.397Z,84.25
2022-08-07T04:18:56.215Z,84.14
2022-08-07T04:18:59.536Z,84.08
2022-08-07T04:19:54.464Z,83.34
2022-08-07T04:20:54.840Z,83.14
2022-08-07T04:22:05.340Z,83.64
2022-08-07T04:22:53.664Z,83.74
2022-08-07T04:24:07.716Z,84.45
2022-08-07T04:24:52.545Z,84.59
2022-08-07T04:25:51.515Z,84.89
2022-08-07T04:26:51.505Z,84.69
2022-08-07T04:27:59.282Z,84.42
2022-08-07T04:28:52.512Z,84.49
2022-08-07T04:30:01.164Z,84.42
2022-08-07T04:30:55.467Z,84.49
2022-08-07T04:32:02.944Z,84.83
2022-08-07T04:32:58.370Z,85.03
2022-08-07T04:33:55.104Z,85.03
2022-08-07T04:34:51.420Z,85.33
2022-08-07T04:35:51.474Z,85.13
2022-08-07T04:36:51.449Z,84.53
2022-08-07T04:38:03.193Z,83.32
2022-08-07T04:38:52.400Z,83.18
2022-08-07T04:39:51.411Z,82.98
2022-08-07T04:40:53.118Z,82.68
2022-08-07T04:41:51.352Z,83.08
2022-08-07T04:42:52.341Z,82.68
2022-08-07T04:44:10.027Z,82.34
2022-08-07T04:44:54.616Z,82.48
2022-08-07T04:46:01.358Z,82.37
2022-08-07T04:47:04.493Z,82.44
2022-08-07T04:47:57.907Z,83.00
2022-08-07T04:48:52.304Z,83.10
2022-08-07T04:49:57.709Z,83.20
2022-08-07T04:50:53.058Z,81.50
2022-08-07T04:51:51.251Z,81.79
2022-08-07T04:52:52.518Z,81.60
2022-08-07T04:54:05.239Z,80.79
2022-08-07T04:54:51.222Z,80.29
2022-08-07T04:58:10.445Z,80.99
2022-08-07T04:58:15.548Z,81.29
2022-08-07T04:58:16.149Z,80.26
2022-08-07T04:59:17.240Z,79.95
2022-08-07T05:00:09.839Z,79.79
2022-08-07T05:00:52.219Z,79.79
2022-08-07T05:01:51.327Z,80.65
2022-08-07T05:02:51.140Z,80.76
2022-08-07T05:04:06.452Z,80.96
2022-08-07T05:04:51.123Z,80.52
2022-08-07T05:05:53.344Z,80.85
2022-08-07T05:06:51.356Z,80.56
2022-08-07T05:07:51.719Z,79.91
2022-08-07T05:09:01.035Z,79.65
2022-08-07T05:09:51.071Z,80.82
2022-08-07T05:10:51.060Z,81.42
2022-08-07T05:11:57.007Z,80.71
2022-08-07T05:12:53.845Z,80.01
2022-08-07T05:14:53.337Z,81.12
2022-08-07T05:15:04.318Z,81.42
2022-08-07T05:15:52.028Z,81.42
2022-08-07T05:16:52.910Z,81.42
2022-08-07T05:17:54.828Z,81.72
2022-08-07T05:18:50.981Z,80.71
2022-08-07T05:19:50.965Z,80.08
2022-08-07T05:20:50.963Z,79.91
2022-08-07T05:22:00.564Z,79.57
2022-08-07T05:22:51.958Z,79.51
2022-08-07T05:23:50.926Z,79.68
2022-08-07T05:24:51.169Z,80.18
2022-08-07T05:26:10.662Z,80.01
2022-08-07T05:26:51.916Z,80.92
2022-08-07T05:28:02.452Z,81.42
2022-08-07T05:28:51.892Z,80.52
2022-08-07T05:29:52.108Z,80.52
2022-08-07T05:30:50.854Z,80.32
2022-08-07T05:31:52.805Z,80.45
2022-08-07T05:32:50.835Z,80.12
2022-08-07T05:34:01.365Z,79.38
2022-08-07T05:34:51.835Z,79.38
2022-08-07T05:35:50.801Z,80.12
2022-08-07T05:36:52.952Z,79.77
2022-08-07T05:38:08.943Z,79.77
2022-08-07T05:38:58.046Z,80.71
2022-08-07T05:40:16.607Z,79.68
2022-08-07T05:40:51.767Z,78.90
2022-08-07T05:42:02.212Z,78.90
2022-08-07T05:42:55.638Z,78.80
2022-08-07T05:44:12.050Z,77.40
2022-08-07T05:45:04.303Z,76.56
2022-08-07T05:45:51.724Z,76.76
2022-08-07T05:46:51.233Z,76.72
2022-08-07T05:48:01.830Z,76.42
2022-08-07T05:48:58.363Z,77.26
2022-08-07T05:49:51.691Z,77.56
2022-08-07T05:50:50.801Z,77.86
2022-08-07T05:51:50.648Z,77.70
2022-08-07T05:52:50.637Z,78.70
2022-08-07T05:54:09.215Z,79.86
2022-08-07T05:54:55.469Z,80.20
2022-08-07T05:56:01.998Z,80.80
2022-08-07T05:56:51.641Z,80.46
2022-08-07T05:57:50.587Z,79.90
2022-08-07T05:58:52.712Z,80.46
2022-08-07T05:59:57.132Z,80.36
2022-08-07T06:00:51.577Z,79.96
2022-08-07T06:01:50.588Z,79.46
2022-08-07T06:02:50.538Z,79.30
2022-08-07T06:03:57.140Z,79.56
2022-08-07T06:04:51.536Z,78.82
2022-08-07T06:05:56.684Z,79.69
2022-08-07T06:06:56.415Z,81.09
2022-08-07T06:08:14.846Z,80.19
2022-08-07T06:08:51.667Z,80.09
2022-08-07T06:10:05.718Z,79.79
2022-08-07T06:10:54.613Z,78.05
2022-08-07T06:11:50.446Z,77.85
2022-08-07T06:12:50.440Z,78.55
2022-08-07T06:14:13.218Z,79.08
2022-08-07T06:14:50.419Z,77.99
2022-08-07T06:15:50.408Z,78.79
2022-08-07T06:16:55.840Z,78.15
2022-08-07T06:17:55.381Z,78.39
2022-08-07T06:18:51.751Z,79.19
2022-08-07T06:20:03.200Z,77.15
2022-08-07T06:22:14.679Z,77.28
2022-08-07T06:22:15.158Z,77.65
2022-08-07T06:23:02.341Z,76.85
2022-08-07T06:24:39.164Z,78.05
2022-08-07T06:24:58.064Z,78.95
2022-08-07T06:25:54.761Z,79.65
2022-08-07T06:26:51.319Z,80.01
2022-08-07T06:28:01.254Z,79.75
2022-08-07T06:28:50.276Z,80.25
2022-08-07T06:29:50.265Z,80.88
2022-08-07T06:30:51.849Z,80.35
2022-08-07T06:31:50.724Z,80.09
2022-08-07T06:32:50.233Z,80.75
2022-08-07T06:33:50.224Z,78.69
2022-08-07T06:34:50.216Z,77.35
2022-08-07T06:36:06.385Z,77.02
2022-08-07T06:36:51.910Z,77.28
2022-08-07T06:37:50.185Z,77.97
2022-08-07T06:38:59.198Z,78.27
2022-08-07T06:40:17.844Z,78.08
2022-08-07T06:40:51.337Z,78.91
2022-08-07T06:42:02.018Z,79.35
2022-08-07T06:42:51.154Z,79.35
2022-08-07T06:44:01.390Z,79.75
2022-08-07T06:44:51.458Z,80.09
2022-08-07T06:45:50.100Z,80.35
2022-08-07T06:46:53.652Z,80.55
2022-08-07T06:47:58.790Z,80.35
2022-08-07T06:48:51.094Z,79.05
2022-08-07T06:49:50.809Z,78.61
2022-08-07T06:50:50.051Z,78.71
2022-08-07T06:51:50.412Z,77.81
2022-08-07T06:52:52.902Z,76.91
2022-08-07T06:55:28.954Z,76.48
2022-08-07T06:55:31.422Z,76.14
2022-08-07T06:56:00.436Z,74.95
2022-08-07T06:56:51.019Z,74.21
2022-08-07T06:57:56.404Z,73.87
2022-08-07T07:00:11.647Z,72.88
2022-08-07T07:00:11.648Z,72.88
2022-08-07T07:00:52.968Z,73.18
2022-08-07T07:01:50.900Z,73.51
2022-08-07T07:02:54.193Z,74.01
2022-08-07T07:03:57.242Z,73.71
2022-08-07T07:04:55.066Z,73.21
2022-08-07T07:06:04.990Z,72.71
2022-08-07T07:07:00.588Z,72.91
2022-08-07T07:07:59.879Z,72.61
2022-08-07T07:08:50.912Z,71.88
2022-08-07T07:09:49.860Z,71.15
2022-08-07T07:10:56.518Z,71.88
2022-08-07T07:12:08.217Z,70.78
2022-08-07T07:12:50.418Z,71.18
2022-08-07T07:13:58.413Z,69.55
2022-08-07T07:14:49.813Z,68.66
2022-08-07T07:15:51.782Z,70.05
2022-08-07T07:16:53.382Z,69.03
2022-08-07T07:17:50.512Z,68.39
2022-08-07T07:18:49.776Z,68.13
2022-08-07T07:19:57.138Z,68.23
2022-08-07T07:20:50.207Z,68.26
2022-08-07T07:22:05.100Z,67.76
2022-08-07T07:24:09.886Z,68.36
2022-08-07T07:24:11.242Z,66.54
2022-08-07T07:24:56.862Z,66.37
2022-08-07T07:26:34.959Z,67.07
2022-08-07T07:26:52.314Z,68.26
2022-08-07T07:27:58.398Z,66.84
2022-08-07T07:29:57.008Z,66.54
2022-08-07T07:30:09.206Z,66.44
2022-08-07T07:30:49.656Z,66.14
2022-08-07T07:31:49.647Z,65.52
2022-08-07T07:32:49.639Z,65.09
2022-08-07T07:33:56.460Z,63.20
2022-08-07T07:34:50.641Z,62.87
2022-08-07T07:36:03.940Z,63.50
2022-08-07T07:36:52.753Z,63.90
2022-08-07T07:38:02.035Z,63.07
2022-08-07T07:38:49.576Z,60.76
2022-08-07T07:39:54.944Z,58.06
2022-08-07T07:40:49.554Z,59.25
2022-08-07T07:42:02.158Z,61.03
2022-08-07T07:42:51.331Z,61.52
2022-08-07T07:44:17.420Z,61.46
2022-08-07T07:44:49.867Z,61.95
2022-08-07T07:46:36.752Z,62.25
2022-08-07T07:46:57.272Z,61.92
2022-08-07T07:47:52.699Z,62.59
2022-08-07T07:48:49.479Z,62.65
2022-08-07T07:50:34.755Z,63.67
2022-08-07T07:50:49.463Z,63.76
2022-08-07T07:51:58.468Z,64.99
2022-08-07T07:52:50.459Z,63.67
2022-08-07T07:53:51.858Z,63.87
2022-08-07T07:54:50.606Z,64.27
2022-08-07T07:55:57.426Z,62.87
2022-08-07T07:56:50.424Z,63.40
2022-08-07T07:57:53.599Z,64.19
2022-08-07T07:58:49.387Z,64.09
2022-08-07T07:59:52.224Z,63.34
2022-08-07T08:00:53.831Z,62.32
2022-08-07T08:02:01.667Z,62.78
2022-08-07T08:03:05.819Z,63.04
2022-08-07T08:04:10.511Z,63.67
2022-08-07T08:04:50.689Z,62.38
2022-08-07T08:05:53.985Z,61.81
2022-08-07T08:06:52.046Z,62.21
2022-08-07T08:07:59.703Z,62.48
2022-08-07T08:08:50.303Z,62.45
2022-08-07T08:09:52.032Z,61.56
2022-08-07T08:10:50.286Z,62.02
2022-08-07T08:12:02.221Z,61.13
2022-08-07T08:12:58.879Z,60.66
2022-08-07T08:13:54.365Z,59.05
2022-08-07T08:14:49.230Z,58.72
2022-08-07T08:15:57.864Z,57.70
2022-08-07T08:16:50.860Z,56.42
2022-08-07T08:17:57.461Z,56.49
2022-08-07T08:18:50.400Z,56.96
2022-08-07T08:20:17.523Z,59.03
2022-08-07T08:20:50.192Z,57.87
2022-08-07T08:21:55.345Z,56.89
2022-08-07T08:22:56.322Z,59.06
2022-08-07T08:23:50.184Z,56.68
2022-08-07T08:24:54.830Z,56.17
2022-08-07T08:25:49.686Z,56.36
2022-08-07T08:26:50.387Z,55.94
2022-08-07T08:27:56.891Z,56.14
2022-08-07T08:28:49.092Z,57.55
2022-08-07T08:29:54.177Z,56.39
2022-08-07T08:30:51.504Z,56.87
2022-08-07T08:31:58.845Z,58.28
2022-08-07T08:32:50.280Z,57.89
2022-08-07T08:33:55.284Z,55.68
2022-08-07T08:34:50.057Z,55.88
2022-08-07T08:35:50.740Z,54.96
2022-08-07T08:36:49.016Z,53.62
2022-08-07T08:38:00.506Z,52.31
2022-08-07T08:38:50.018Z,52.50
2022-08-07T08:39:54.933Z,52.33
2022-08-07T08:40:50.001Z,53.15
2022-08-07T08:41:58.334Z,53.25
2022-08-07T08:42:51.545Z,50.65
2022-08-07T08:43:59.133Z,50.55
2022-08-07T08:44:48.938Z,51.56
2022-08-07T08:46:00.721Z,53.57
2022-08-07T08:46:49.939Z,51.74
2022-08-07T08:47:52.612Z,53.60
2022-08-07T08:48:50.930Z,50.50
2022-08-07T08:50:02.395Z,48.98
2022-08-07T08:50:51.673Z,49.37
2022-08-07T08:51:49.552Z,49.47
2022-08-07T08:52:54.078Z,48.95
2022-08-07T08:53:48.894Z,49.00
2022-08-07T08:54:48.845Z,48.49
2022-08-07T08:55:54.993Z,48.29
2022-08-07T08:56:49.847Z,48.37
2022-08-07T08:57:48.817Z,48.76
2022-08-07T08:58:50.450Z,48.37
2022-08-07T08:59:50.264Z,49.30
2022-08-07T09:00:51.734Z,50.73
2022-08-07T09:01:49.467Z,51.67
2022-08-07T09:02:52.395Z,53.54
2022-08-07T09:03:52.589Z,53.89
2022-08-07T09:04:48.744Z,52.97
2022-08-07T09:05:48.804Z,53.32
2022-08-07T09:06:48.738Z,54.63
2022-08-07T09:07:58.053Z,54.58
2022-08-07T09:08:49.730Z,50.21
2022-08-07T09:09:48.699Z,51.25
2022-08-07T09:10:48.693Z,50.33
2022-08-07T09:11:53.336Z,50.97
2022-08-07T09:12:53.430Z,48.46
2022-08-07T09:13:49.354Z,47.63
2022-08-07T09:14:50.725Z,47.70
2022-08-07T09:16:23.873Z,47.09
2022-08-07T09:16:49.658Z,46.58
2022-08-07T09:17:59.606Z,46.82
2022-08-07T09:18:58.267Z,46.06
2022-08-07T09:19:53.266Z,47.26
2022-08-07T09:20:58.141Z,47.16
2022-08-07T09:22:22.706Z,46.16
2022-08-07T09:24:31.059Z,44.63
2022-08-07T09:24:32.765Z,47.43
2022-08-07T09:25:00.613Z,45.03
2022-08-07T09:25:54.228Z,43.04
2022-08-07T09:26:50.993Z,45.30
2022-08-07T09:27:59.848Z,46.20
2022-08-07T09:30:04.319Z,44.81
2022-08-07T09:30:07.341Z,44.78
2022-08-07T09:30:54.253Z,45.05
2022-08-07T09:31:49.462Z,46.71
2022-08-07T09:32:48.487Z,48.93
2022-08-07T09:33:56.587Z,49.06
2022-08-07T09:34:53.619Z,47.35
2022-08-07T09:36:04.671Z,46.49
2022-08-07T09:36:49.843Z,46.49
2022-08-07T09:37:54.238Z,45.68
2022-08-07T09:38:53.624Z,44.92
2022-08-07T09:39:55.559Z,43.19
2022-08-07T09:40:50.109Z,41.36
2022-08-07T09:41:58.907Z,41.97
2022-08-07T09:42:50.298Z,43.05
2022-08-07T09:44:06.563Z,43.29
2022-08-07T09:47:20.285Z,44.83
2022-08-07T09:47:25.192Z,44.85
2022-08-07T09:47:52.607Z,44.81
2022-08-07T09:48:01.334Z,43.46
2022-08-07T09:50:00.575Z,43.49
2022-08-07T09:50:02.148Z,46.30
2022-08-07T09:50:51.402Z,48.38
2022-08-07T09:52:15.745Z,47.24
2022-08-07T09:52:51.772Z,46.01
2022-08-07T09:53:56.124Z,43.60
2022-08-07T09:54:49.310Z,42.93
2022-08-07T09:56:03.357Z,42.76
2022-08-07T09:56:48.269Z,42.03
2022-08-07T09:57:48.265Z,41.89
2022-08-07T09:58:48.753Z,43.99
2022-08-07T10:00:01.514Z,44.36
2022-08-07T10:00:50.557Z,49.06
2022-08-07T10:01:53.118Z,48.12
2022-08-07T10:02:55.892Z,46.11
2022-08-07T10:04:05.963Z,45.69
2022-08-07T10:04:53.302Z,45.91
2022-08-07T10:06:01.305Z,47.90
2022-08-07T10:06:55.620Z,46.94
2022-08-07T10:07:52.747Z,46.91
2022-08-07T10:08:49.583Z,47.80
2022-08-07T10:10:00.238Z,46.59
2022-08-07T10:11:16.676Z,48.73
2022-08-07T10:12:01.168Z,51.51
2022-08-07T10:12:53.023Z,49.27
2022-08-07T10:14:00.881Z,50.95
2022-08-07T10:14:54.182Z,46.26
2022-08-07T10:15:48.103Z,47.04
2022-08-07T10:16:48.205Z,43.49
2022-08-07T10:18:01.135Z,46.36
2022-08-07T10:18:48.078Z,44.15
2022-08-07T10:19:48.073Z,44.40
2022-08-07T10:20:50.376Z,42.50
2022-08-07T10:22:12.649Z,41.48
2022-08-07T10:22:51.044Z,41.30
2022-08-07T10:24:05.440Z,40.50
2022-08-07T10:24:49.048Z,39.33
2022-08-07T10:25:48.014Z,42.48
2022-08-07T10:26:53.044Z,43.63
2022-08-07T10:27:47.997Z,40.58
2022-08-07T10:28:49.666Z,39.58
2022-08-07T10:29:51.884Z,39.08
2022-08-07T10:30:47.968Z,40.27
2022-08-07T10:31:49.586Z,41.52
2022-08-07T10:32:52.677Z,41.91
2022-08-07T10:34:06.778Z,44.34
2022-08-07T10:34:48.961Z,45.34
2022-08-07T10:35:56.467Z,45.28
2022-08-07T10:36:48.949Z,41.95
2022-08-07T10:38:00.948Z,41.52
2022-08-07T10:38:49.955Z,41.68
2022-08-07T10:40:02.631Z,44.96
2022-08-07T10:40:48.904Z,43.66
2022-08-07T10:41:53.788Z,43.32
2022-08-07T10:42:50.053Z,44.26
2022-08-07T10:43:47.863Z,46.09
2022-08-07T10:44:47.850Z,47.06
2022-08-07T10:45:58.395Z,45.42
2022-08-07T10:46:48.854Z,44.88
2022-08-07T10:47:51.632Z,43.19
2022-08-07T10:48:47.813Z,44.35
2022-08-07T10:49:51.001Z,46.08
2022-08-07T10:50:50.372Z,45.25
2022-08-07T10:52:01.926Z,42.84
2022-08-07T10:52:51.546Z,43.15
2022-08-07T10:53:47.770Z,43.46
2022-08-07T10:54:53.366Z,44.26
2022-08-07T10:55:48.774Z,46.15
2022-08-07T10:56:47.747Z,45.73
2022-08-07T10:57:56.182Z,45.32
2022-08-07T10:58:56.722Z,45.57
2022-08-07T10:59:47.760Z,43.15
2022-08-07T11:00:50.179Z,42.44
2022-08-07T11:01:51.928Z,40.78
2022-08-07T11:02:49.123Z,41.61
2022-08-07T11:03:54.861Z,40.67
2022-08-07T11:04:48.698Z,44.92
2022-08-07T11:05:50.902Z,41.97
2022-08-07T11:06:47.658Z,40.58
2022-08-07T11:07:58.981Z,38.28
2022-08-07T11:08:48.684Z,37.63
2022-08-07T11:10:09.341Z,37.03
2022-08-07T11:10:55.391Z,40.17
2022-08-07T11:11:51.825Z,44.06
2022-08-07T11:12:48.996Z,43.45
2022-08-07T11:14:57.400Z,42.68
2022-08-07T11:14:57.427Z,42.78
2022-08-07T11:15:54.736Z,41.60
2022-08-07T11:16:52.797Z,43.57
2022-08-07T11:17:47.977Z,48.32
2022-08-07T11:18:51.085Z,45.46
2022-08-07T11:19:47.550Z,45.24
2022-08-07T11:20:47.536Z,44.41
2022-08-07T11:21:47.527Z,44.64
2022-08-07T11:22:47.524Z,42.68
2022-08-07T11:23:48.534Z,43.45
2022-08-07T11:24:47.507Z,41.03
2022-08-07T11:25:49.837Z,41.42
2022-08-07T11:26:49.913Z,41.38
2022-08-07T11:28:02.074Z,42.66
2022-08-07T11:28:55.127Z,43.21
2022-08-07T11:29:53.882Z,43.29
2022-08-07T11:30:48.476Z,41.88
2022-08-07T11:31:47.448Z,41.27
2022-08-07T11:32:47.437Z,42.27
2022-08-07T11:33:53.750Z,41.52
2022-08-07T11:34:48.439Z,41.60
2022-08-07T11:36:00.352Z,40.13
2022-08-07T11:36:49.671Z,39.00
2022-08-07T11:37:58.414Z,40.13
2022-08-07T11:38:50.646Z,40.17
2022-08-07T11:40:00.341Z,42.42
2022-08-07T11:40:49.743Z,41.03
2022-08-07T11:42:01.517Z,38.92
2022-08-07T11:42:48.373Z,37.20
2022-08-07T11:44:10.690Z,37.75
2022-08-07T11:44:52.591Z,38.02
2022-08-07T11:45:49.878Z,38.20
2022-08-07T11:46:48.765Z,39.09
2022-08-07T11:47:56.081Z,38.59
2022-08-07T11:49:27.439Z,38.98
2022-08-07T11:50:18.544Z,37.98
2022-08-07T11:50:57.729Z,39.35
2022-08-07T11:51:47.274Z,39.23
2022-08-07T11:52:47.264Z,42.82
2022-08-07T11:54:00.977Z,45.59
2022-08-07T11:54:54.766Z,45.03
2022-08-07T11:56:25.775Z,45.93
2022-08-07T11:56:52.303Z,44.85
2022-08-07T11:57:58.087Z,46.25
2022-08-07T11:58:49.887Z,44.92
2022-08-07T12:00:10.247Z,45.50
2022-08-07T12:01:01.731Z,43.19
2022-08-07T12:01:59.245Z,43.81
2022-08-07T12:02:52.000Z,42.26
2022-08-07T12:03:47.244Z,39.95
2022-08-07T12:04:47.162Z,39.56
2022-08-07T12:05:49.540Z,40.44
2022-08-07T12:06:51.680Z,39.17
2022-08-07T12:07:53.837Z,37.57
2022-08-07T12:08:48.145Z,38.61
2022-08-07T12:09:47.118Z,38.86
2022-08-07T12:10:47.107Z,38.84
2022-08-07T12:12:09.502Z,38.43
2022-08-07T12:12:48.114Z,40.28
2022-08-07T12:13:47.811Z,38.59
2022-08-07T12:14:52.675Z,39.50
2022-08-07T12:16:05.766Z,40.74
2022-08-07T12:16:47.060Z,42.99
2022-08-07T12:17:59.718Z,42.37
2022-08-07T12:18:47.041Z,43.82
2022-08-07T12:20:02.519Z,44.07
2022-08-07T12:20:49.164Z,42.46
2022-08-07T12:22:36.073Z,43.28
2022-08-07T12:22:58.367Z,40.80
2022-08-07T12:24:07.184Z,40.46
2022-08-07T12:25:02.079Z,37.96
2022-08-07T12:26:03.083Z,38.84
2022-08-07T12:26:49.317Z,39.21
2022-08-07T12:28:09.101Z,36.95
2022-08-07T12:28:49.775Z,36.43
2022-08-07T12:29:46.948Z,36.33
2022-08-07T12:30:53.277Z,38.12
2022-08-07T12:31:52.972Z,39.11
2022-08-07T12:32:46.925Z,42.09
2022-08-07T12:34:00.788Z,43.46
2022-08-07T12:34:49.406Z,42.48
2022-08-07T12:35:48.246Z,42.58
2022-08-07T12:36:49.413Z,42.15
2022-08-07T12:38:11.531Z,40.33
2022-08-07T12:38:57.407Z,39.99
2022-08-07T12:39:50.812Z,38.41
2022-08-07T12:42:40.658Z,39.74
2022-08-07T12:42:54.911Z,36.84
2022-08-07T12:44:05.067Z,36.02
2022-08-07T12:44:48.032Z,36.00
2022-08-07T12:48:28.412Z,34.70
2022-08-07T12:48:28.423Z,35.79
2022-08-07T12:49:39.760Z,36.76
2022-08-07T12:51:23.392Z,40.17
2022-08-07T12:51:33.436Z,38.45
2022-08-07T12:52:34.278Z,38.57
2022-08-07T12:55:03.764Z,39.13
2022-08-07T12:55:09.419Z,38.74
2022-08-07T14:02:03.790Z,40.19
2022-08-07T14:02:04.568Z,33.73
2022-08-07T14:02:58.908Z,33.39
2022-08-07T14:04:08.104Z,34.30
2022-08-07T14:05:03.950Z,35.21
2022-08-07T14:06:07.715Z,35.71
2022-08-07T14:08:37.507Z,36.21
2022-08-07T14:08:38.913Z,35.92
2022-08-07T14:10:02.988Z,35.42
2022-08-07T14:10:42.173Z,35.63
2022-08-07T14:12:00.341Z,36.04
2022-08-07T14:19:02.768Z,36.66
2022-08-07T14:19:04.289Z,37.76
2022-08-07T14:20:42.160Z,36.97
2022-08-07T14:22:10.609Z,36.46
2022-08-07T14:22:10.800Z,36.43
2022-08-07T14:24:03.653Z,35.42
2022-08-07T14:24:07.501Z,34.70
2022-08-07T14:25:07.486Z,35.33
2022-08-07T14:26:07.529Z,33.39
2022-08-07T14:28:55.888Z,36.82
2022-08-07T14:28:57.404Z,33.41
2022-08-07T14:33:17.197Z,37.01
2022-08-07T14:33:24.612Z,38.82
2022-08-07T14:34:29.294Z,38.54
2022-08-07T14:40:55.138Z,38.62
2022-08-07T14:40:56.610Z,34.80
2022-08-07T14:42:20.248Z,35.48
2022-08-07T14:43:01.399Z,36.52
2022-08-07T14:44:07.878Z,39.93
2022-08-07T14:44:59.947Z,43.41
2022-08-07T14:45:56.531Z,45.00
2022-08-07T14:47:14.559Z,45.22
2022-08-07T14:47:58.614Z,44.20
2022-08-07T14:48:56.507Z,43.25
2022-08-07T14:49:59.334Z,42.37
2022-08-07T14:50:56.489Z,42.64
2022-08-07T14:52:04.242Z,41.61
2022-08-07T14:52:56.469Z,41.03
2022-08-07T14:54:30.557Z,41.22
2022-08-07T14:54:56.454Z,40.93
2022-08-07T14:56:02.079Z,41.95
2022-08-07T14:56:56.437Z,41.66
2022-08-07T14:58:58.416Z,42.95
2022-08-07T15:03:24.777Z,44.47
2022-08-07T15:03:52.303Z,39.95
2022-08-07T15:04:32.161Z,38.45
2022-08-07T15:05:31.128Z,38.82
2022-08-07T15:06:31.123Z,38.62
2022-08-07T15:07:51.290Z,38.62
2022-08-07T15:08:32.234Z,38.54
2022-08-07T15:09:31.093Z,39.06
2022-08-07T15:10:32.107Z,40.05
2022-08-07T15:11:53.725Z,39.89
2022-08-07T15:12:33.071Z,42.13
2022-08-07T15:13:35.816Z,43.35
2022-08-07T15:14:31.053Z,44.92
2022-08-07T15:15:31.043Z,46.55
2022-08-07T15:16:34.059Z,46.45
2022-08-07T15:17:31.337Z,46.23
2022-08-07T15:20:30.740Z,45.98
2022-08-07T15:21:44.288Z,44.98
2022-08-07T15:22:33.438Z,44.96
2022-08-07T15:25:13.101Z,44.96
2022-08-07T15:25:14.521Z,44.37
2022-08-07T15:25:36.823Z,44.59
2022-08-07T15:26:31.973Z,45.73
2022-08-07T15:27:31.217Z,46.25
2022-08-07T15:31:04.441Z,45.28
2022-08-07T15:31:05.393Z,46.23
2022-08-07T15:37:03.038Z,41.30
2022-08-07T15:37:03.245Z,45.59
2022-08-07T15:40:35.012Z,41.91
2022-08-07T15:40:36.694Z,42.71
2022-08-07T15:42:43.353Z,43.92
2022-08-07T15:44:38.656Z,40.46
2022-08-07T15:45:57.669Z,40.80
2022-08-07T15:46:51.762Z,43.32
2022-08-07T15:48:02.390Z,44.06
2022-08-07T15:48:37.640Z,45.32
2022-08-07T15:50:03.700Z,46.40
2022-08-07T15:52:36.897Z,46.89
2022-08-07T15:53:51.877Z,46.60
2022-08-07T15:54:39.495Z,47.50
2022-08-07T15:56:02.412Z,47.26
2022-08-07T15:56:37.574Z,45.86
2022-08-07T15:57:39.768Z,45.01
2022-08-07T15:58:37.556Z,44.72
2022-08-07T15:59:39.982Z,44.25
2022-08-07T16:00:37.968Z,45.18
2022-08-07T16:01:39.103Z,45.96
2022-08-07T16:02:36.509Z,45.69
2022-08-07T16:03:46.095Z,45.79
2022-08-07T16:04:37.502Z,46.91
2022-08-07T16:05:36.470Z,47.50
2022-08-07T16:06:36.464Z,47.92
2022-08-07T16:08:32.328Z,49.64
2022-08-07T16:08:38.998Z,49.57
2022-08-07T16:09:41.871Z,48.95
2022-08-07T16:10:36.422Z,48.66
2022-08-07T16:11:39.919Z,49.06
2022-08-07T16:12:38.951Z,49.87
2022-08-07T16:13:57.918Z,50.16
2022-08-07T16:14:37.411Z,49.96
2022-08-07T16:15:55.003Z,50.06
2022-08-07T16:16:48.417Z,50.16
2022-08-07T16:18:02.134Z,50.65
2022-08-07T16:18:49.314Z,50.58
2022-08-07T16:19:42.592Z,51.27
2022-08-07T16:20:36.993Z,51.73
2022-08-07T16:22:02.062Z,50.53
2022-08-07T16:22:37.956Z,50.36
2022-08-07T16:23:54.297Z,50.58
2022-08-07T16:24:37.314Z,50.87
2022-08-07T16:25:52.473Z,50.48
2022-08-07T16:26:37.294Z,50.87
2022-08-07T16:27:39.979Z,51.07
2022-08-07T16:30:06.767Z,51.20
2022-08-07T16:30:11.187Z,50.78
2022-08-07T16:30:37.254Z,50.75
2022-08-07T16:31:51.844Z,49.32
2022-08-07T16:32:37.426Z,48.93
2022-08-07T16:34:02.520Z,49.35
2022-08-07T16:34:36.197Z,49.54
2022-08-07T16:35:57.086Z,49.87
2022-08-07T16:37:02.784Z,50.09
2022-08-07T16:38:06.471Z,50.68
2022-08-07T16:39:00.137Z,50.61
2022-08-07T16:39:48.929Z,50.70
2022-08-07T16:40:37.241Z,51.02
2022-08-07T16:41:41.126Z,51.12
2022-08-07T16:42:36.613Z,51.12
2022-08-07T16:44:02.696Z,51.20
2022-08-07T16:44:55.469Z,51.49
2022-08-07T16:46:40.364Z,51.89
2022-08-07T16:47:07.676Z,50.90
2022-08-07T16:47:56.571Z,52.31
2022-08-07T16:49:04.205Z,51.54
2022-08-07T16:50:20.855Z,51.74
2022-08-07T16:50:48.234Z,52.13
2022-08-07T16:52:01.667Z,51.98
2022-08-07T16:52:55.698Z,52.97
2022-08-07T16:54:01.673Z,52.78
2022-08-07T16:54:36.005Z,53.60
2022-08-07T16:55:47.079Z,54.58
2022-08-07T16:56:37.672Z,53.49
2022-08-07T16:58:02.622Z,53.99
2022-08-07T16:59:02.334Z,53.69
2022-08-07T16:59:47.061Z,53.67
2022-08-07T17:00:36.966Z,53.67
2022-08-07T17:01:36.028Z,53.77
2022-08-07T17:03:04.942Z,52.78
2022-08-07T17:03:58.473Z,52.78
2022-08-07T17:04:52.984Z,53.57
2022-08-07T17:06:20.008Z,52.75
2022-08-07T17:06:44.211Z,53.10
2022-08-07T17:07:51.510Z,53.10
2022-08-07T17:09:09.837Z,53.62
2022-08-07T17:10:07.928Z,54.11
2022-08-07T17:10:36.872Z,54.24
2022-08-07T17:11:50.757Z,54.11
2022-08-07T17:12:39.878Z,54.41
2022-08-07T17:13:38.915Z,54.51
2022-08-07T17:14:35.811Z,54.61
2022-08-07T17:15:43.654Z,54.02
2022-08-07T17:16:35.801Z,54.02
2022-08-07T17:17:43.930Z,53.62
2022-08-07T17:18:36.792Z,54.31
2022-08-07T17:20:02.458Z,54.24
2022-08-07T17:20:35.753Z,54.46
2022-08-07T17:21:51.797Z,54.66
2022-08-07T17:22:38.136Z,55.35
2022-08-07T17:23:35.747Z,55.18
2022-08-07T17:24:35.711Z,55.85
2022-08-07T17:25:47.506Z,55.38
2022-08-07T17:26:50.006Z,55.48
2022-08-07T17:27:37.021Z,55.78
2022-08-07T17:28:36.696Z,55.88
2022-08-07T17:30:14.322Z,55.58
2022-08-07T17:30:36.673Z,55.90
2022-08-07T17:31:44.003Z,55.90
2022-08-07T17:32:36.769Z,56.10
2022-08-07T17:34:09.733Z,56.50
2022-08-07T17:35:02.703Z,55.90
2022-08-07T17:35:55.174Z,56.30
2022-08-07T17:36:57.830Z,56.33
2022-08-07T17:38:11.504Z,56.60
2022-08-07T17:38:35.604Z,56.40
2022-08-07T17:39:58.447Z,56.33
2022-08-07T17:40:35.626Z,56.00
2022-08-07T17:42:04.557Z,56.03
2022-08-07T17:42:35.543Z,55.90
2022-08-07T17:44:00.931Z,56.20
2022-08-07T17:44:42.710Z,56.23
2022-08-07T17:45:36.524Z,56.33
2022-08-07T17:46:35.497Z,56.33
2022-08-07T17:47:42.273Z,56.53
2022-08-07T17:48:36.497Z,57.39
2022-08-07T17:49:44.535Z,52.28
2022-08-07T17:50:35.458Z,53.50
2022-08-07T17:52:00.767Z,53.80
2022-08-07T17:52:35.436Z,53.40
2022-08-07T17:53:59.859Z,51.42
2022-08-07T17:54:40.169Z,51.44
2022-08-07T17:55:59.913Z,51.64
2022-08-07T17:56:36.419Z,52.04
2022-08-07T17:57:58.375Z,51.97
2022-08-07T17:58:36.400Z,52.49
2022-08-07T17:59:36.218Z,52.99
2022-08-07T18:00:49.365Z,53.80
2022-08-07T18:01:37.135Z,54.50
2022-08-07T18:02:35.338Z,55.99
2022-08-07T18:04:03.950Z,57.34
2022-08-07T18:04:36.338Z,58.76
2022-08-07T18:06:03.188Z,60.94
2022-08-07T18:06:38.485Z,60.84
2022-08-07T18:07:35.289Z,60.84
2022-08-07T18:08:35.279Z,59.64
2022-08-07T18:10:04.354Z,61.47
2022-08-07T18:10:36.277Z,63.07
2022-08-07T18:12:16.813Z,62.40
2022-08-07T18:12:36.510Z,61.10
2022-08-07T18:13:40.795Z,60.24
2022-08-07T18:14:37.402Z,61.17
2022-08-07T18:15:35.211Z,63.26
2022-08-07T18:16:35.198Z,64.00